createdAt,value
2022-11-21T00:01:19.438Z,8.91
2022-11-21T00:03:52.709Z,8.91
2022-11-21T00:06:27.012Z,8.94
2022-11-21T00:08:59.845Z,8.98
2022-11-21T00:11:32.536Z,8.92
2022-11-21T00:14:05.362Z,8.92
2022-11-21T00:16:38.054Z,8.90
2022-11-21T00:19:10.869Z,8.94
2022-11-21T00:21:45.139Z,8.97
2022-11-21T00:24:17.804Z,8.98
2022-11-21T00:26:50.624Z,8.88
2022-11-21T00:29:23.505Z,8.90
2022-11-21T00:31:56.269Z,8.90
2022-11-21T00:34:29.490Z,8.80
2022-11-21T00:37:03.853Z,8.83
2022-11-21T00:39:36.591Z,8.81
2022-11-21T00:42:09.387Z,8.70
2022-11-21T00:44:43.214Z,8.76
2022-11-21T00:47:15.875Z,8.70
2022-11-21T00:49:48.645Z,8.75
2022-11-21T00:52:22.717Z,8.74
2022-11-21T00:54:56.098Z,8.81
2022-11-21T00:57:28.880Z,8.76
2022-11-21T01:00:01.614Z,8.77
2022-11-21T01:02:34.380Z,8.81
2022-11-21T01:05:07.925Z,8.83
2022-11-21T01:07:42.183Z,8.76
2022-11-21T01:10:15.586Z,8.69
2022-11-21T01:12:48.512Z,8.67
2022-11-21T01:15:21.212Z,8.72
2022-11-21T01:17:53.908Z,8.77
2022-11-21T01:20:26.727Z,8.75
2022-11-21T01:23:00.782Z,8.66
2022-11-21T01:25:34.850Z,8.72
2022-11-21T01:28:07.667Z,8.78
2022-11-21T01:30:40.746Z,8.79
2022-11-21T01:33:13.420Z,8.74
2022-11-21T01:35:46.270Z,8.66
2022-11-21T01:38:20.261Z,8.58
2022-11-21T01:40:53.201Z,8.65
2022-11-21T01:43:26.169Z,8.65
2022-11-21T01:46:01.419Z,8.64
2022-11-21T01:48:38.550Z,8.71
2022-11-21T01:51:14.301Z,8.68
2022-11-21T01:53:54.266Z,8.70
2022-11-21T01:56:29.190Z,8.68
2022-11-21T01:59:04.137Z,8.64
2022-11-21T02:01:38.247Z,8.67
2022-11-21T02:04:11.430Z,8.65
2022-11-21T02:06:45.485Z,8.68
2022-11-21T02:09:20.308Z,8.62
2022-11-21T02:11:57.375Z,8.61
2022-11-21T02:14:30.186Z,8.59
2022-11-21T02:17:07.236Z,8.61
2022-11-21T02:19:48.607Z,8.53
2022-11-21T02:22:28.937Z,8.58
2022-11-21T02:25:06.030Z,8.60
2022-11-21T02:27:39.191Z,8.54
2022-11-21T02:30:13.252Z,8.57
2022-11-21T02:32:47.721Z,8.56
2022-11-21T02:35:20.937Z,8.56
2022-11-21T02:37:59.077Z,8.51
2022-11-21T02:40:35.780Z,8.49
2022-11-21T02:43:14.862Z,8.46
2022-11-21T02:45:47.860Z,8.44
2022-11-21T02:48:21.182Z,8.39
2022-11-21T02:50:53.876Z,8.38
2022-11-21T02:53:26.731Z,8.44
2022-11-21T02:56:00.771Z,8.38
2022-11-21T02:58:33.869Z,8.34
2022-11-21T03:01:06.652Z,8.41
2022-11-21T03:03:39.607Z,8.38
2022-11-21T03:06:12.373Z,8.33
2022-11-21T03:08:45.125Z,8.25
2022-11-21T03:11:19.109Z,8.20
2022-11-21T03:13:51.870Z,8.21
2022-11-21T03:16:24.497Z,8.22
2022-11-21T03:18:58.037Z,8.18
2022-11-21T03:21:30.733Z,8.06
2022-11-21T03:24:03.678Z,8.15
2022-11-21T03:26:37.751Z,8.11
2022-11-21T03:29:10.654Z,8.08
2022-11-21T03:31:43.359Z,8.09
2022-11-21T03:34:16.146Z,8.13
2022-11-21T03:36:48.925Z,8.12
2022-11-21T03:39:21.652Z,8.10
2022-11-21T03:41:55.729Z,8.09
2022-11-21T03:44:28.738Z,7.90
2022-11-21T03:47:01.655Z,8.05
2022-11-21T03:49:34.604Z,7.91
2022-11-21T03:52:07.759Z,7.85
2022-11-21T03:54:40.469Z,7.80
2022-11-21T03:57:14.459Z,7.76
2022-11-21T03:59:47.223Z,7.80
2022-11-21T04:02:19.995Z,7.80
2022-11-21T04:04:52.658Z,7.77
2022-11-21T04:07:25.991Z,7.78
2022-11-21T04:09:58.684Z,7.76
2022-11-21T04:12:32.719Z,7.77
2022-11-21T04:15:12.140Z,7.83
2022-11-21T04:17:46.441Z,7.77
2022-11-21T04:20:19.228Z,7.83
2022-11-21T04:22:52.062Z,7.86
2022-11-21T04:25:24.783Z,7.97
2022-11-21T04:27:59.065Z,7.79
2022-11-21T04:30:33.147Z,7.72
2022-11-21T04:33:05.938Z,7.72
2022-11-21T04:35:38.670Z,7.69
2022-11-21T04:38:11.334Z,7.64
2022-11-21T04:40:44.584Z,7.66
2022-11-21T04:43:19.002Z,7.63
2022-11-21T04:45:51.801Z,7.61
2022-11-21T04:48:24.725Z,7.59
2022-11-21T04:50:57.758Z,7.63
2022-11-21T04:53:30.375Z,7.60
2022-11-21T04:56:05.355Z,7.61
2022-11-21T04:58:39.365Z,7.62
2022-11-21T05:01:12.466Z,7.64
2022-11-21T05:03:45.054Z,7.56
2022-11-21T05:06:17.745Z,7.57
2022-11-21T05:08:54.011Z,7.58
2022-11-21T05:11:44.762Z,7.54
2022-11-21T05:14:18.940Z,7.54
2022-11-21T05:16:51.600Z,7.51
2022-11-21T05:19:24.239Z,7.56
2022-11-21T05:21:57.136Z,7.56
2022-11-21T05:24:30.032Z,7.55
2022-11-21T05:27:03.032Z,7.52
2022-11-21T05:29:37.001Z,7.51
2022-11-21T05:32:09.760Z,7.48
2022-11-21T05:34:42.591Z,7.53
2022-11-21T05:37:15.386Z,7.47
2022-11-21T05:39:48.049Z,7.47
2022-11-21T05:42:40.853Z,7.50
2022-11-21T05:45:14.068Z,7.43
2022-11-21T05:47:46.838Z,7.44
2022-11-21T05:50:19.498Z,7.54
2022-11-21T05:52:52.486Z,7.46
2022-11-21T05:55:25.048Z,7.46
2022-11-21T05:57:59.875Z,7.44
2022-11-21T06:00:34.174Z,7.45
2022-11-21T06:03:25.297Z,7.42
2022-11-21T06:06:03.298Z,7.40
2022-11-21T06:08:37.896Z,7.39
2022-11-21T06:11:12.742Z,7.37
2022-11-21T06:13:45.649Z,7.38
2022-11-21T06:16:20.608Z,7.34
2022-11-21T06:18:58.119Z,7.37
2022-11-21T06:21:34.112Z,7.40
2022-11-21T06:24:08.759Z,7.38
2022-11-21T06:26:41.447Z,7.40
2022-11-21T06:29:14.202Z,7.34
2022-11-21T06:31:48.254Z,7.38
2022-11-21T06:34:21.021Z,7.43
2022-11-21T06:36:54.145Z,7.41
2022-11-21T06:39:26.896Z,7.41
2022-11-21T06:41:59.581Z,7.43
2022-11-21T06:44:32.263Z,7.35
2022-11-21T06:47:06.637Z,7.34
2022-11-21T06:49:39.644Z,7.39
2022-11-21T06:52:12.156Z,7.38
2022-11-21T06:54:44.896Z,7.39
2022-11-21T06:57:17.597Z,7.39
2022-11-21T06:59:50.369Z,7.30
2022-11-21T07:02:24.690Z,7.29
2022-11-21T07:04:57.425Z,7.23
2022-11-21T07:07:30.157Z,7.26
2022-11-21T07:10:03.029Z,7.24
2022-11-21T07:12:53.469Z,7.22
2022-11-21T07:15:26.151Z,7.24
2022-11-21T07:18:00.648Z,7.20
2022-11-21T07:20:33.550Z,7.25
2022-11-21T07:23:06.839Z,7.22
2022-11-21T07:25:40.518Z,7.18
2022-11-21T07:28:13.430Z,7.18
2022-11-21T07:30:46.187Z,7.17
2022-11-21T07:33:20.325Z,7.15
2022-11-21T07:35:53.268Z,7.14
2022-11-21T07:38:26.224Z,7.16
2022-11-21T07:40:59.235Z,7.18
2022-11-21T07:43:31.737Z,7.14
2022-11-21T07:46:04.666Z,7.10
2022-11-21T07:48:38.734Z,7.13
2022-11-21T07:51:11.385Z,7.12
2022-11-21T07:53:44.302Z,7.12
2022-11-21T07:56:17.787Z,7.12
2022-11-21T07:58:53.160Z,7.08
2022-11-21T08:01:25.976Z,7.09
2022-11-21T08:04:00.084Z,7.09
2022-11-21T08:06:32.713Z,7.11
2022-11-21T08:09:05.436Z,7.11
2022-11-21T08:11:38.392Z,7.11
2022-11-21T08:14:10.944Z,7.11
2022-11-21T08:16:43.751Z,7.09
2022-11-21T08:19:19.054Z,7.08
2022-11-21T08:21:54.394Z,7.08
2022-11-21T08:24:27.936Z,7.10
2022-11-21T08:27:01.308Z,7.12
2022-11-21T08:29:33.965Z,7.19
2022-11-21T08:32:06.935Z,7.16
2022-11-21T08:34:40.903Z,7.16
2022-11-21T08:37:13.702Z,7.16
2022-11-21T08:39:46.449Z,7.18
2022-11-21T08:42:19.238Z,7.19
2022-11-21T08:44:52.033Z,7.20
2022-11-21T08:47:24.845Z,7.26
2022-11-21T08:49:58.898Z,7.26
2022-11-21T08:52:32.159Z,7.28
2022-11-21T08:55:05.185Z,7.31
2022-11-21T08:57:38.725Z,7.25
2022-11-21T09:00:12.538Z,7.30
2022-11-21T09:02:46.043Z,7.33
2022-11-21T09:05:20.166Z,7.38
2022-11-21T09:07:57.377Z,7.37
2022-11-21T09:10:30.248Z,7.41
2022-11-21T09:13:03.147Z,7.45
2022-11-21T09:15:53.388Z,7.45
2022-11-21T09:18:26.232Z,7.56
2022-11-21T09:21:00.267Z,7.58
2022-11-21T09:23:32.959Z,7.67
2022-11-21T09:26:05.622Z,7.73
2022-11-21T09:28:38.782Z,7.86
2022-11-21T09:31:12.049Z,7.87
2022-11-21T09:33:44.959Z,7.84
2022-11-21T09:36:19.104Z,7.93
2022-11-21T09:38:53.186Z,7.90
2022-11-21T09:41:50.673Z,8.10
2022-11-21T09:44:40.948Z,8.11
2022-11-21T09:47:22.602Z,8.21
2022-11-21T09:50:01.032Z,8.33
2022-11-21T09:52:39.760Z,8.47
2022-11-21T09:55:22.481Z,8.45
2022-11-21T09:57:56.058Z,8.70
2022-11-21T10:00:29.029Z,8.68
2022-11-21T10:03:02.382Z,8.79
2022-11-21T10:05:41.990Z,8.93
2022-11-21T10:08:23.451Z,9.01
2022-11-21T10:10:59.466Z,9.04
2022-11-21T10:13:50.392Z,9.09
2022-11-21T10:16:34.860Z,9.07
2022-11-21T10:19:34.886Z,9.09
2022-11-21T10:22:29.144Z,9.20
2022-11-21T10:25:12.525Z,9.17
2022-11-21T10:27:51.321Z,9.16
2022-11-21T10:30:24.509Z,9.26
2022-11-21T10:33:00.424Z,9.32
2022-11-21T10:35:40.712Z,9.34
2022-11-21T10:38:21.633Z,9.31
2022-11-21T10:41:04.092Z,9.41
2022-11-21T10:44:01.140Z,9.50
2022-11-21T10:46:34.127Z,9.42
2022-11-21T10:49:08.592Z,9.57
2022-11-21T10:51:51.961Z,9.61
2022-11-21T10:54:33.658Z,9.58
2022-11-21T10:57:14.906Z,9.73
2022-11-21T11:00:00.585Z,9.85
2022-11-21T11:02:33.346Z,9.90
2022-11-21T11:05:20.819Z,9.93
2022-11-21T11:08:01.333Z,10.02
2022-11-21T11:10:36.241Z,10.13
2022-11-21T11:13:50.891Z,10.16
2022-11-21T11:16:25.650Z,10.21
2022-11-21T11:19:01.448Z,10.24
2022-11-21T11:21:44.858Z,10.25
2022-11-21T11:24:24.346Z,10.36
2022-11-21T11:27:02.515Z,10.46
2022-11-21T11:29:51.185Z,10.45
2022-11-21T11:32:24.538Z,10.46
2022-11-21T11:35:00.960Z,10.37
2022-11-21T11:37:41.163Z,10.41
2022-11-21T11:40:22.716Z,10.49
2022-11-21T11:43:24.044Z,10.45
2022-11-21T11:46:26.735Z,10.44
2022-11-21T11:49:20.221Z,10.41
2022-11-21T11:51:58.179Z,10.33
2022-11-21T11:54:36.069Z,10.33
2022-11-21T11:57:11.169Z,10.41
2022-11-21T11:59:48.631Z,10.36
2022-11-21T12:02:26.498Z,10.38
2022-11-21T12:05:08.193Z,10.41
2022-11-21T12:08:39.500Z,10.38
2022-11-21T12:10:59.475Z,10.41
2022-11-21T12:13:34.997Z,10.37
2022-11-21T12:16:14.323Z,10.30
2022-11-21T12:18:55.150Z,10.38
2022-11-21T12:21:29.211Z,10.36
2022-11-21T12:24:04.570Z,10.36
2022-11-21T12:26:52.319Z,10.41
2022-11-21T12:29:37.159Z,10.39
2022-11-21T12:32:20.360Z,10.42
2022-11-21T12:35:01.134Z,10.41
2022-11-21T12:37:47.399Z,10.37
2022-11-21T12:40:38.906Z,10.40
2022-11-21T12:43:25.400Z,10.42
2022-11-21T12:46:08.688Z,10.42
2022-11-21T12:49:09.877Z,10.40
2022-11-21T12:52:19.168Z,10.42
2022-11-21T12:55:02.590Z,10.46
2022-11-21T12:57:48.015Z,10.34
2022-11-21T13:00:26.165Z,10.44
2022-11-21T13:03:29.841Z,10.47
2022-11-21T13:06:05.405Z,10.44
2022-11-21T13:08:40.385Z,10.41
2022-11-21T13:11:42.028Z,10.46
2022-11-21T13:14:22.738Z,10.46
2022-11-21T13:17:05.030Z,10.50
2022-11-21T13:19:47.196Z,10.49
2022-11-21T13:22:54.863Z,10.45
2022-11-21T13:25:47.344Z,10.50
2022-11-21T13:28:35.817Z,10.55
2022-11-21T13:31:29.698Z,10.50
2022-11-21T13:34:03.248Z,10.49
2022-11-21T13:36:41.856Z,10.48
2022-11-21T13:39:33.356Z,10.46
2022-11-21T13:42:27.587Z,10.49
2022-11-21T13:45:21.475Z,10.52
2022-11-21T13:48:16.636Z,10.48
2022-11-21T13:51:21.422Z,10.37
2022-11-21T13:54:20.318Z,10.34
2022-11-21T13:57:10.060Z,10.45
2022-11-21T14:00:02.514Z,10.40
2022-11-21T14:03:10.409Z,10.32
2022-11-21T14:06:04.908Z,10.30
2022-11-21T14:08:37.749Z,10.26
2022-11-21T14:11:21.989Z,10.23
2022-11-21T14:13:55.913Z,10.17
2022-11-21T14:16:37.852Z,10.20
2022-11-21T14:19:15.477Z,10.15
2022-11-21T14:21:49.251Z,10.14
2022-11-21T14:24:22.416Z,10.20
2022-11-21T14:27:05.275Z,10.19
2022-11-21T14:29:41.187Z,10.18
2022-11-21T14:32:18.455Z,10.14
2022-11-21T14:34:51.714Z,10.10
2022-11-21T14:37:24.610Z,10.08
2022-11-21T14:40:00.927Z,10.09
2022-11-21T14:42:37.849Z,10.00
2022-11-21T14:45:19.555Z,10.00
2022-11-21T14:47:55.466Z,10.01
2022-11-21T14:50:29.704Z,10.09
2022-11-21T14:53:05.231Z,10.07
2022-11-21T14:55:38.079Z,10.08
2022-11-21T14:58:17.257Z,10.08
2022-11-21T15:01:20.990Z,10.07
2022-11-21T15:03:58.938Z,10.00
2022-11-21T15:06:43.008Z,9.97
2022-11-21T15:12:10.697Z,10.01
2022-11-21T15:14:47.595Z,10.01
2022-11-21T15:17:24.671Z,10.01
2022-11-21T15:20:20.228Z,10.00
2022-11-21T15:22:57.102Z,9.99
2022-11-21T15:25:33.018Z,10.00
2022-11-21T15:28:11.471Z,9.97
2022-11-21T15:30:45.390Z,9.95
2022-11-21T15:33:19.856Z,9.90
2022-11-21T15:35:55.906Z,9.89
2022-11-21T15:38:33.819Z,9.95
2022-11-21T15:41:28.574Z,9.95
2022-11-21T15:44:22.613Z,9.94
2022-11-21T15:46:56.025Z,9.95
2022-11-21T15:52:24.475Z,9.88
2022-11-21T15:54:57.694Z,9.90
2022-11-21T15:57:14.562Z,9.90
2022-11-21T15:57:30.857Z,9.81
2022-11-21T16:00:08.373Z,9.78
2022-11-21T16:02:44.749Z,9.82
2022-11-21T16:05:17.925Z,9.95
2022-11-21T16:07:52.180Z,9.93
2022-11-21T16:10:27.905Z,9.94
2022-11-21T16:13:01.117Z,9.89
2022-11-21T16:15:35.364Z,9.90
2022-11-21T16:18:08.967Z,9.94
2022-11-21T16:20:41.913Z,9.82
2022-11-21T16:23:17.462Z,9.90
2022-11-21T16:25:54.378Z,9.77
2022-11-21T16:28:27.201Z,9.76
2022-11-21T16:31:03.181Z,9.71
2022-11-21T16:33:36.332Z,9.83
2022-11-21T16:36:09.102Z,9.71
2022-11-21T16:38:45.005Z,9.69
2022-11-21T16:41:18.831Z,9.69
2022-11-21T16:43:53.547Z,9.71
2022-11-21T16:46:26.671Z,9.71
2022-11-21T16:49:01.202Z,9.69
2022-11-21T16:51:34.004Z,9.69
2022-11-21T16:54:09.837Z,9.69
2022-11-21T16:56:42.765Z,9.73
2022-11-21T16:59:15.946Z,9.71
2022-11-21T17:01:48.904Z,9.71
2022-11-21T17:04:21.834Z,9.69
2022-11-21T17:06:57.823Z,9.73
2022-11-21T17:09:47.396Z,9.68
2022-11-21T17:12:20.521Z,9.69
2022-11-21T17:14:54.934Z,9.69
2022-11-21T17:17:32.009Z,9.67
2022-11-21T17:20:07.557Z,9.72
2022-11-21T17:22:41.473Z,9.68
2022-11-21T17:25:16.261Z,9.71
2022-11-21T17:27:51.156Z,9.76
2022-11-21T17:30:24.553Z,9.74
2022-11-21T17:32:57.564Z,9.73
2022-11-21T17:35:30.222Z,9.69
2022-11-21T17:38:12.204Z,9.65
2022-11-21T17:40:50.607Z,9.72
2022-11-21T17:43:25.275Z,9.69
2022-11-21T17:46:02.687Z,9.73
2022-11-21T17:48:38.964Z,9.73
2022-11-21T17:51:15.703Z,9.67
2022-11-21T17:53:50.245Z,9.74
2022-11-21T17:56:29.291Z,9.73
2022-11-21T17:59:03.270Z,9.75
2022-11-21T18:01:39.750Z,9.77
2022-11-21T18:04:17.938Z,9.72
2022-11-21T18:06:53.012Z,9.71
2022-11-21T18:09:26.431Z,9.65
2022-11-21T18:12:04.281Z,9.63
2022-11-21T18:14:43.227Z,9.69
2022-11-21T18:17:16.152Z,9.69
2022-11-21T18:19:49.088Z,9.69
2022-11-21T18:22:32.681Z,9.71
2022-11-21T18:25:06.468Z,9.66
2022-11-21T18:27:40.573Z,9.72
2022-11-21T18:30:17.456Z,9.71
2022-11-21T18:32:50.931Z,9.73
2022-11-21T18:35:27.536Z,9.75
2022-11-21T18:38:00.713Z,9.75
2022-11-21T18:40:33.817Z,9.68
2022-11-21T18:43:08.208Z,9.68
2022-11-21T18:45:42.986Z,9.72
2022-11-21T18:48:18.042Z,9.78
2022-11-21T18:50:53.568Z,9.72
2022-11-21T18:53:29.034Z,9.71
2022-11-21T18:56:06.159Z,9.76
2022-11-21T18:58:42.002Z,9.77
2022-11-21T19:01:16.536Z,9.68
2022-11-21T19:03:50.078Z,9.66
2022-11-21T19:06:31.043Z,9.71
2022-11-21T19:09:15.085Z,9.73
2022-11-21T19:11:49.980Z,9.71
2022-11-21T19:14:24.368Z,9.71
2022-11-21T19:16:59.205Z,9.80
2022-11-21T19:19:35.907Z,9.73
2022-11-21T19:22:11.397Z,9.72
2022-11-21T19:24:49.043Z,9.84
2022-11-21T19:27:28.788Z,9.83
2022-11-21T19:30:03.967Z,9.75
2022-11-21T19:33:26.957Z,9.74
2022-11-21T19:36:03.881Z,9.70
2022-11-21T19:38:43.087Z,9.66
2022-11-21T19:41:20.288Z,9.63
2022-11-21T19:43:55.339Z,9.64
2022-11-21T19:46:32.406Z,9.64
2022-11-21T19:49:07.178Z,9.68
2022-11-21T19:51:42.378Z,9.69
2022-11-21T19:54:18.917Z,9.74
2022-11-21T19:56:54.636Z,9.70
2022-11-21T19:59:28.432Z,9.64
2022-11-21T20:02:03.257Z,9.66
2022-11-21T20:04:41.356Z,9.72
2022-11-21T20:07:14.404Z,9.78
2022-11-21T20:09:53.071Z,9.67
2022-11-21T20:12:26.492Z,9.63
2022-11-21T20:15:02.501Z,9.61
2022-11-21T20:17:39.766Z,9.59
2022-11-21T20:20:19.848Z,9.59
2022-11-21T20:22:52.835Z,9.63
2022-11-21T20:25:28.270Z,9.65
2022-11-21T20:28:06.248Z,9.65
2022-11-21T20:30:42.315Z,9.62
2022-11-21T20:33:20.481Z,9.59
2022-11-21T20:36:06.539Z,9.50
2022-11-21T20:38:44.303Z,9.54
2022-11-21T20:41:17.403Z,9.51
2022-11-21T20:44:44.699Z,9.52
2022-11-21T20:46:52.859Z,9.53
2022-11-21T20:49:29.059Z,9.57
2022-11-21T20:53:44.025Z,9.51
2022-11-21T20:54:55.739Z,9.56
2022-11-21T20:57:30.396Z,9.56
2022-11-21T21:00:05.297Z,9.59
2022-11-21T21:02:38.580Z,9.53
2022-11-21T21:05:15.025Z,9.57
2022-11-21T21:07:47.829Z,9.54
2022-11-21T21:10:23.255Z,9.59
2022-11-21T21:12:55.990Z,9.64
2022-11-21T21:15:28.765Z,9.62
2022-11-21T21:18:03.759Z,9.63
2022-11-21T21:21:01.730Z,9.62
2022-11-21T21:23:30.827Z,9.62
2022-11-21T21:26:14.910Z,9.62
2022-11-21T21:28:48.116Z,9.61
2022-11-21T21:31:25.073Z,9.64
2022-11-21T21:33:59.243Z,9.59
2022-11-21T21:36:33.478Z,9.60
2022-11-21T21:39:06.575Z,9.65
2022-11-21T21:41:44.870Z,9.63
2022-11-21T21:44:17.928Z,9.69
2022-11-21T21:46:50.590Z,9.67
2022-11-21T21:49:24.113Z,9.73
2022-11-21T21:51:58.229Z,9.72
2022-11-21T21:54:31.459Z,9.74
2022-11-21T21:57:04.837Z,9.76
2022-11-21T21:59:37.822Z,9.71
2022-11-21T22:02:11.909Z,9.68
2022-11-21T22:04:49.159Z,9.66
2022-11-21T22:07:25.892Z,9.69
2022-11-21T22:09:58.709Z,9.68
2022-11-21T22:12:34.460Z,9.74
2022-11-21T22:15:08.212Z,9.78
2022-11-21T22:17:41.009Z,9.71
2022-11-21T22:20:13.899Z,9.75
2022-11-21T22:22:48.046Z,9.80
2022-11-21T22:25:20.833Z,9.76
2022-11-21T22:27:53.621Z,9.78
2022-11-21T22:30:26.345Z,9.74
2022-11-21T22:32:59.169Z,9.73
2022-11-21T22:35:32.877Z,9.73
2022-11-21T22:38:07.103Z,9.69
2022-11-21T22:40:39.920Z,9.67
2022-11-21T22:43:12.877Z,9.75
2022-11-21T22:45:45.866Z,9.77
2022-11-21T22:48:18.674Z,9.75
2022-11-21T22:50:51.628Z,9.67
2022-11-21T22:53:27.075Z,9.68
2022-11-21T22:56:01.041Z,9.80
2022-11-21T22:58:35.209Z,9.66
2022-11-21T23:01:09.839Z,9.73
2022-11-21T23:03:43.041Z,9.72
2022-11-21T23:06:17.884Z,9.65
2022-11-21T23:08:52.235Z,9.76
2022-11-21T23:11:29.556Z,9.77
2022-11-21T23:14:02.380Z,9.79
2022-11-21T23:16:35.439Z,9.74
2022-11-21T23:19:08.312Z,9.75
2022-11-21T23:21:41.414Z,9.80
2022-11-21T23:24:15.530Z,9.73
2022-11-21T23:26:51.053Z,9.73
2022-11-21T23:29:23.920Z,9.65
2022-11-21T23:31:56.880Z,9.71
2022-11-21T23:34:29.565Z,9.64
2022-11-21T23:37:05.262Z,9.60
2022-11-21T23:39:39.336Z,9.57
2022-11-21T23:42:12.064Z,9.69
2022-11-21T23:44:48.391Z,9.66
2022-11-21T23:47:21.199Z,9.66
2022-11-21T23:49:54.111Z,9.61
2022-11-21T23:52:38.904Z,9.62
2022-11-21T23:55:13.169Z,9.61
2022-11-21T23:57:48.395Z,9.60
